Skip Navigation Links
NOAA logo - Click to go to the NOAA homepage
NOAA's National Weather Service
Alaska Aviation Weather Unit
  NWS logo - Click to go to the NWS homepage
Left Navbar Graphic     19 AKDT = 03 GMT

   
NOAA is celebrating 200 years of science, service, and stewardship. Visit the NOAA 200th celebration Web site to learn more.
USA.gov is the U.S. Government's official Web portal to all Federal, state and local government Web resources and services.
Facebook
NWS on Facebook

Important Change Regarding the AAWU Web Presence

 

Over the last several months, the AAWU has been working to navigate its webpages to a nationally supported server. Security, as well as other needs, have necessitated the change.  In the process, we have made an effort to enhance the functionality of our website, as well as some of our products. As of June 20, 2017, aawu.arh.noaa.gov will be discontinued. The new AAWU web address is weather.gov/aawu. It is now live and will run in-parallel with the old site until it is discontinued. Please send any feedback or questions regarding the new webpages to nws.ar.aawu.webauthors@noaa.gov.  Thank you for your patience during this time of transition.
AAWU Home :: Display TAF Add Bookmark
TAF PASI 242340Z 2500/2524 26009KT P6SM VCSH SCT030 BKN050 OVC070
     FM250500 26010KT P6SM VCSH SCT030 OVC050
     FM251200 30005KT P6SM VCSH BKN030 OVC050
     FM251700 27007KT P6SM VCSH OVC025=
METAR PASI 242153Z 28009KT 10SM SCT035 OVC070 11/06 A3028=

METAR PASI 242253Z 28009KT 9SM OVC042 11/06 A3028=

METAR PASI 242353Z 31009KT 8SM OVC035 09/06 A3028=

METAR PASI 250053Z 26005KT 8SM OVC036 10/06 A3027=

METAR PASI 250153Z 25004KT 8SM OVC030 09/06 A3026=

PASI 250233Z 25004KT 8SM OVC028 09/06 A3025=

SPECI PASI 250233Z 25004KT 8SM OVC028 09/06 A3025 RMK AO2 T00940061=

METAR PASI 250253Z 28005KT 8SM OVC026 10/06 A3025 RMK AO2 SLP244
 T01000056 56010=


NOAA's National Weather Service
Alaska Aviation Weather Unit
6930 Sand Lake Road
Anchorage, AK 99502-1845
Disclaimer
Credits
Glossary
Privacy Policy
About Us
Career Opportunities
Contact AAWU Internet Services Site last modified: April, 17th 2012